Meteo Giornale » Osservazioni meteo Austria » Vienna-Schwechat

ore: 09:20 - Osservazioni Meteo Vienna-Schwechat
Lat. 48° 7' N Lon. 16° 34' E Alt. 183 metri s.l.m.

poco_nuvoloso Europe/Vienna

5 °C

Poco Nuvoloso

Temp. 24 Ore

1 °C

11 °C

Nord-Ovest

22.2 Km/h

Dew point -3 °C

Umidità 56 %

Visibilità  10 Km

Il sole sorge alle ore 06:39

Il sole tramonta alle ore 17:33

Data e Ora Cielo e Fenomeni T °C DP °C Um. % Pres. hPa Vis. km Vento km/h
Oggi h: 09:20 poco_nuvoloso Poco Nuvoloso 5 -3 56 1023 10 NO 22.2
Oggi h: 08:50 nuvoloso Nuvoloso 4 -3 60 1023 10 O 14.8
Oggi h: 07:20 sereno Sereno 2 -4 64 1022 10 O 18.5
Oggi h: 06:50 sereno Sereno 2 -4 64 1021 10 O 18.5
Oggi h: 06:20 sereno Sereno 1 -4 69 1021 10 O 13
Oggi h: 05:50 sereno Sereno 1 -5 64 1021 10 O/NO 7.4
Oggi h: 05:20 sereno Sereno 1 -5 64 1021 10 O 13
Oggi h: 04:20 sereno Sereno 1 -4 69 1020 10 NO 11.1
Oggi h: 03:50 sereno Sereno 2 -4 64 1020 10 O/NO 16.7
Oggi h: 03:20 sereno Sereno 1 -4 69 1020 10 NO 16.7
Oggi h: 02:50 nuvoloso Nuvoloso 1 -4 69 1020 10 NO 9.3
Oggi h: 02:20 molto_nuvoloso Molto Nuvoloso 2 -3 69 1019 10 NO 11.1
Oggi h: 01:50 molto_nuvoloso Molto Nuvoloso 2 -3 69 1019 10 N/NO 13
Oggi h: 01:20 molto_nuvoloso Molto Nuvoloso 3 -4 59 1019 10 N/NO 14.8
Oggi h: 00:50 molto_nuvoloso Molto Nuvoloso 3 -4 59 1019 10 N/NO 22.2
Oggi h: 00:20 sereno Sereno 4 -4 55 1018 10 NO 25.9
Ieri h: 23:20 sereno Sereno 4 -4 55 1017 10 NO 27.8
Ieri h: 22:50 sereno Sereno 5 -3 56 1017 10 NO 24
Ieri h: 22:20 sereno Sereno 5 -3 56 1016 10 NO 27.8
Ieri h: 21:50 sereno Sereno 5 -3 56 1016 10 NO 27.8
Ieri h: 21:20 sereno Sereno 5 -3 56 1015 10 NO 29.6
Ieri h: 20:50 sereno Sereno 6 -3 52 1014 10 NO 29.6
Ieri h: 20:20 sereno Sereno 6 -3 52 1014 10 NO 22.2
Ieri h: 19:50 molto_nuvoloso Molto Nuvoloso 6 -3 52 1013 10 NO 24
Ieri h: 19:20 molto_nuvoloso Molto Nuvoloso 7 -3 48 1012 10 NO 37
Ieri h: 18:50 sereno Sereno 7 -3 48 1012 10 NO 25.9
Ieri h: 18:20 molto_nuvoloso Molto Nuvoloso 7 -2 52 1011 10 N/NO 25.9
Ieri h: 17:50 molto_nuvoloso Molto Nuvoloso 7 -2 52 1010 10 N 16.7
Ieri h: 17:20 molto_nuvoloso Molto Nuvoloso 8 -3 45 1009 10 N/NO 24
Ieri h: 16:50 molto_nuvoloso Molto Nuvoloso 9 -4 39 1008 10 NO 27.8
Ieri h: 16:20 sereno Sereno 9 -4 39 1008 10 NO 35.2
Ieri h: 15:50 sereno Sereno 10 -4 36 1008 10 NO 27.8
Ieri h: 15:20 sereno Sereno 10 -4 36 1008 10 NO 25.9
Ieri h: 14:50 sereno Sereno 10 -2 42 1008 10 O 27.8
Ieri h: 14:20 sereno Sereno 10 -2 42 1007 10 O 31.5
Ieri h: 13:20 sereno Sereno 11 -4 34 1007 10 O/NO 35.2
Ieri h: 12:50 molto_nuvoloso Molto Nuvoloso 10 -2 42 1007 10 O/NO 31.5
Ieri h: 12:20 molto_nuvoloso Molto Nuvoloso 10 -2 42 1007 10 O/NO 33.3
Ieri h: 11:50 molto_nuvoloso Molto Nuvoloso 10 -1 46 1007 10 O 37
Ieri h: 11:20 molto_nuvoloso Molto Nuvoloso 10 0 49 1007 10 O 35.2
Ieri h: 10:50 molto_nuvoloso Molto Nuvoloso 9 0 53 1007 10 O 35.2
Ieri h: 10:20 molto_nuvoloso Molto Nuvoloso 9 0 53 1007 10 O 31.5
Ieri h: 09:50 molto_nuvoloso Molto Nuvoloso 9 0 53 1006 10 O 33.3
Ieri h: 09:20 molto_nuvoloso Molto Nuvoloso 9 0 53 1005 10 O/NO 44.4